Time;durP1;ratioP1;P1;durP2;ratioP2;P2;SDS_P1;SDS_P2;PMS_P1;PMS_P2;Temp;Humidity;BMP_temperature;BMP_pressure;BME280_temperature;BME280_humidity;BME280_pressure;Samples;Min_cycle;Max_cycle;Signal;HPM_P1;HPM_P2
2023/01/07 00:00:00;;;;;;;;;;;;;;;9.58;86.41;101016.94;5033574;28;20091;-68
2023/01/07 00:03:03;;;;;;;3.17;1.27;;;;;;;9.66;86.01;101015.72;5033235;28;19935;-69
2023/01/07 00:06:08;;;;;;;;;;;;;;;9.70;85.81;101013.81;5033087;28;20102;-69
2023/01/07 00:09:15;;;;;;;3.38;1.77;;;;;;;9.57;86.37;101012.63;5033014;28;20020;-69
2023/01/07 00:12:18;;;;;;;4.55;2.72;;;;;;;9.64;86.30;101012.34;5032997;28;20167;-69
2023/01/07 00:15:21;;;;;;;3.15;0.70;;;;;;;9.55;86.61;101008.31;5032792;28;20064;-69
2023/01/07 00:18:25;;;;;;;4.80;1.75;;;;;;;9.53;87.11;101010.13;5033076;28;20445;-69
2023/01/07 00:21:31;;;;;;;6.55;2.95;;;;;;;9.55;86.92;101000.50;5033065;28;20044;-71
2023/01/07 00:24:36;;;;;;;5.05;4.00;;;;;;;9.60;87.00;101002.06;5033044;28;20055;-69
2023/01/07 00:27:39;;;;;;;;;;;;;;;9.54;87.19;100996.19;5033100;28;20044;-69
2023/01/07 00:30:42;;;;;;;7.63;1.03;;;;;;;9.66;86.88;100986.97;5020533;28;19924;-69
2023/01/07 00:34:07;;;;;;;;;;;;;;;9.51;87.50;100967.59;5032889;28;20296;-69
2023/01/07 00:40:32;;;;;;;6.95;2.40;;;;;;;9.53;87.32;100970.13;5020537;28;20122;-69
2023/01/07 00:43:36;;;;;;;3.20;1.10;;;;;;;9.51;86.80;100970.22;5032606;28;20049;-69
2023/01/07 00:46:39;;;;;;;2.08;0.57;;;;;;;9.48;86.88;100967.72;5032849;28;20072;-69
2023/01/07 00:49:42;;;;;;;4.15;0.45;;;;;;;9.53;86.88;100970.97;5032396;28;20048;-69
2023/01/07 00:52:45;;;;;;;;;;;;;;;9.32;88.42;100966.63;5032935;28;20048;-69
2023/01/07 00:55:50;;;;;;;2.25;0.70;;;;;;;9.49;87.73;100969.41;5020188;28;19974;-69
2023/01/07 00:58:54;;;;;;;2.95;0.70;;;;;;;9.44;87.99;100970.50;5020280;28;20076;-69
2023/01/07 01:01:58;;;;;;;;;;;;;;;9.45;88.03;100965.22;5020733;28;20052;-69
2023/01/07 01:05:05;;;;;;;4.07;1.08;;;;;;;9.45;88.40;100967.00;5020361;28;19920;-69
2023/01/07 01:08:08;;;;;;;4.72;0.80;;;;;;;9.49;88.12;100956.34;5020124;28;20420;-69
2023/01/07 01:11:14;;;;;;;6.82;1.02;;;;;;;9.56;87.64;100964.78;5032323;28;20550;-69
2023/01/07 01:14:17;;;;;;;3.60;0.70;;;;;;;9.64;87.25;100960.09;5020324;28;20083;-69
2023/01/07 01:17:25;;;;;;;3.47;0.43;;;;;;;9.61;87.43;100967.22;5032199;28;20096;-69
2023/01/07 01:20:28;;;;;;;7.35;1.80;;;;;;;9.57;87.57;100960.41;5036123;28;20052;-69
2023/01/07 01:23:32;;;;;;;9.23;2.30;;;;;;;9.51;87.71;100957.16;5036199;28;20041;-69
2023/01/07 01:26:35;;;;;;;;;;;;;;;9.70;87.31;100957.25;5024137;28;20111;-69
2023/01/07 01:29:37;;;;;;;5.05;0.50;;;;;;;9.71;86.92;100963.31;5035963;28;19919;-69
2023/01/07 01:32:42;;;;;;;1.40;0.50;;;;;;;9.58;87.63;100960.34;5023556;28;20052;-69
2023/01/07 01:35:46;;;;;;;4.72;1.52;;;;;;;9.69;87.24;100957.28;5035717;28;20137;-69
2023/01/07 01:38:49;;;;;;;;;;;;;;;9.68;87.40;100956.44;5036239;28;20457;-69
2023/01/07 01:41:53;;;;;;;3.20;1.50;;;;;;;9.44;88.41;100960.06;5035806;28;19938;-69
2023/01/07 01:44:58;;;;;;;3.90;1.63;;;;;;;9.50;88.59;100960.66;5035636;28;20076;-69
2023/01/07 01:48:08;;;;;;;1.65;0.52;;;;;;;9.46;88.97;100948.66;5023366;28;20056;-69
2023/01/07 01:51:14;;;;;;;3.05;1.10;;;;;;;9.64;88.00;100954.03;5035470;28;20091;-69
2023/01/07 01:54:20;;;;;;;3.05;0.88;;;;;;;9.41;88.87;100950.63;5023251;28;20044;-69
2023/01/07 01:57:31;;;;;;;1.15;0.43;;;;;;;9.55;88.47;100945.66;5023230;28;20090;-69
2023/01/07 02:00:35;;;;;;;2.45;1.10;;;;;;;9.68;87.68;100942.56;5023194;28;20064;-69
2023/01/07 02:03:41;;;;;;;1.92;0.55;;;;;;;9.82;86.92;100948.03;5023373;28;20048;-69
2023/01/07 02:07:01;;;;;;;5.05;0.65;;;;;;;9.74;86.67;100947.53;5023267;28;20556;-69
2023/01/07 02:10:16;;;;;;;12.23;3.10;;;;;;;9.57;87.68;100939.53;5023058;28;20103;-69
2023/01/07 02:13:29;;;;;;;2.40;0.70;;;;;;;9.66;87.71;100933.91;5023123;28;20044;-69
2023/01/07 02:16:55;;;;;;;6.03;1.25;;;;;;;9.50;88.26;100934.56;5035192;28;20048;-69
2023/01/07 02:20:01;;;;;;;2.25;0.50;;;;;;;9.45;88.82;100935.69;5022848;28;20047;-69
2023/01/07 02:23:17;;;;;;;2.45;0.50;;;;;;;9.55;88.34;100942.22;5035046;28;20134;-69
2023/01/07 02:26:34;;;;;;;4.82;3.10;;;;;;;9.47;88.56;100934.69;5034962;28;20041;-69
2023/01/07 02:30:02;;;;;;;3.63;1.23;;;;;;;9.57;87.18;100944.75;5011150;28;20180;-69
2023/01/07 02:33:55;;;;;;;2.97;1.50;;;;;;;9.54;87.71;100938.75;5022367;28;20060;-69
2023/01/07 02:37:16;;;;;;;2.17;0.65;;;;;;;9.63;87.11;100950.56;5021359;28;20167;-69
2023/01/07 02:40:33;;;;;;;3.30;0.80;;;;;;;9.63;87.28;100941.88;5034645;28;20135;-69
2023/01/07 02:44:03;;;;;;;4.28;1.17;;;;;;;9.63;87.09;100939.28;5034605;28;20111;-69
2023/01/07 02:47:16;;;;;;;3.25;0.88;;;;;;;9.61;86.98;100935.91;5034494;28;20406;-69
2023/01/07 02:50:19;;;;;;;4.30;1.13;;;;;;;9.58;87.14;100929.03;5034337;28;20052;-69
2023/01/07 02:53:23;;;;;;;5.40;2.47;;;;;;;9.38;88.09;100929.88;5022275;28;20071;-69
2023/01/07 02:56:34;;;;;;;;;;;;;;;9.54;87.33;100930.94;5034700;28;20097;-69
2023/01/07 03:00:09;;;;;;;2.88;1.27;;;;;;;9.58;87.14;100926.41;5021898;28;19920;-69
2023/01/07 03:03:27;;;;;;;4.63;1.40;;;;;;;9.67;86.67;100928.66;5011040;28;20517;-69
2023/01/07 03:07:10;;;;;;;3.72;1.33;;;;;;;9.64;86.62;100925.31;5021890;28;20112;-69
2023/01/07 03:10:29;;;;;;;3.30;0.70;;;;;;;9.58;87.05;100925.56;5034084;28;20103;-69
2023/01/07 03:13:32;;;;;;;1.83;0.52;;;;;;;9.58;87.01;100915.97;5021699;28;20048;-69
2023/01/07 03:16:42;;;;;;;2.28;0.80;;;;;;;9.61;87.00;100918.47;5021731;28;20513;-69
2023/01/07 03:19:51;;;;;;;3.95;0.70;;;;;;;9.71;86.45;100911.09;5021572;28;20056;-69
2023/01/07 03:22:57;;;;;;;2.97;1.60;;;;;;;9.71;86.48;100913.69;5033836;28;20071;-69
2023/01/07 03:26:04;;;;;;;5.35;1.27;;;;;;;9.77;86.37;100916.91;5034054;28;20052;-69
2023/01/07 03:29:10;;;;;;;5.88;1.60;;;;;;;9.55;87.50;100909.13;5033778;28;20048;-69
2023/01/07 03:32:17;;;;;;;4.47;1.10;;;;;;;9.46;87.97;100917.31;5021167;28;20449;-70
2023/01/07 03:35:22;;;;;;;2.60;1.00;;;;;;;9.57;87.54;100910.81;5033445;28;20552;-69
2023/01/07 03:38:26;;;;;;;2.95;0.80;;;;;;;9.66;87.26;100913.03;5033574;28;20052;-69
2023/01/07 03:44:52;;;;;;;8.38;1.10;;;;;;;9.61;87.49;100901.94;5021249;28;20115;-69
2023/01/07 03:47:57;;;;;;;2.97;0.77;;;;;;;9.66;87.34;100893.00;5021068;28;20087;-69
2023/01/07 03:51:04;;;;;;;2.60;0.93;;;;;;;9.40;88.21;100893.25;5020994;28;20439;-69
2023/01/07 03:54:07;;;;;;;;;;;;;;;9.49;88.18;100890.25;5033955;28;20048;-69
2023/01/07 03:57:12;;;;;;;2.70;1.02;;;;;;;9.60;87.72;100892.41;5020913;28;19970;-69
2023/01/07 04:00:15;;;;;;;;;;;;;;;9.59;87.56;100893.31;5033646;28;20442;-69
2023/01/07 04:15:00;;;;;;;4.35;0.90;;;;;;;9.26;89.64;100867.72;5148865;27;20374;-70
2023/01/07 04:18:05;;;;;;;2.22;1.08;;;;;;;9.35;89.28;100877.78;5149193;27;20431;-69
2023/01/07 04:21:11;;;;;;;3.20;1.00;;;;;;;9.38;89.01;100867.22;5147825;27;20112;-69
2023/01/07 04:24:15;;;;;;;4.85;2.58;;;;;;;9.43;88.52;100861.78;5148926;27;20066;-69
2023/01/07 04:27:19;;;;;;;5.80;2.58;;;;;;;9.43;88.51;100857.41;5148817;27;20111;-69
2023/01/07 04:30:22;;;;;;;6.10;1.50;;;;;;;9.39;88.51;100852.41;5135911;27;20095;-69
2023/01/07 04:45:18;;;;;;;2.42;0.80;;;;;;;9.16;90.22;100835.09;5128693;27;20342;-70
2023/01/07 04:48:23;;;;;;;2.85;0.80;;;;;;;9.29;89.53;100831.06;5095900;28;20050;-69
2023/01/07 04:51:29;;;;;;;3.65;1.10;;;;;;;9.37;88.94;100831.56;5095885;28;20400;-69
2023/01/07 04:54:35;;;;;;;4.00;0.90;;;;;;;9.37;88.83;100823.75;5075555;28;20115;-69
2023/01/07 04:57:38;;;;;;;4.35;1.52;;;;;;;9.45;88.33;100816.44;5075977;28;20047;-69
2023/01/07 05:00:42;;;;;;;4.82;1.20;;;;;;;9.42;88.44;100815.75;5075561;28;20039;-69
2023/01/07 05:03:46;;;;;;;2.55;1.17;;;;;;;9.43;88.34;100812.22;5075567;28;20097;-69
2023/01/07 05:06:51;;;;;;;5.60;0.77;;;;;;;9.34;88.79;100817.81;5075733;28;20044;-70
2023/01/07 05:22:42;;;;;;;2.78;1.08;;;;;;;9.21;89.80;100797.44;5292942;22;22408604;-68
2023/01/07 05:25:45;;;;;;;3.65;1.60;;;;;;;9.33;89.07;100790.88;6250675;23;20472;-68
2023/01/07 05:28:49;;;;;;;3.17;1.35;;;;;;;9.23;89.45;100784.34;6250607;23;20026;-69
2023/01/07 05:31:53;;;;;;;3.55;1.90;;;;;;;9.31;89.13;100790.09;6245810;23;20077;-79
2023/01/07 05:34:57;;;;;;;6.55;2.33;;;;;;;9.32;88.93;100789.19;6244605;23;20089;-70
2023/01/07 05:38:01;;;;;;;6.93;1.80;;;;;;;9.28;88.97;100783.25;6243230;23;20098;-70
2023/01/07 05:41:07;;;;;;;4.35;2.45;;;;;;;9.38;88.70;100780.22;6245586;23;20075;-69
2023/01/07 05:56:36;;;;;;;5.35;1.75;;;;;;;9.07;90.76;100779.78;5022793;28;20398;-70
2023/01/07 05:59:40;;;;;;;2.72;1.73;;;;;;;9.16;90.13;100772.50;5019382;28;20060;-72
2023/01/07 06:02:43;;;;;;;6.03;2.65;;;;;;;9.23;89.88;100774.75;5018646;28;20113;-70
2023/01/07 06:05:47;;;;;;;5.70;1.60;;;;;;;9.28;89.48;100766.72;5018661;28;20401;-69
2023/01/07 06:08:50;;;;;;;5.00;1.33;;;;;;;9.28;89.61;100766.72;5016691;28;20130;-70
2023/01/07 06:11:54;;;;;;;;;;;;;;;9.32;89.19;100763.09;5017730;28;20049;-69
2023/01/07 06:14:59;;;;;;;4.47;1.52;;;;;;;9.11;90.74;100758.78;5017616;28;19983;-69
2023/01/07 06:18:02;;;;;;;6.97;4.40;;;;;;;9.22;90.04;100762.66;5018576;28;20071;-68
2023/01/07 06:21:06;;;;;;;4.25;2.20;;;;;;;9.23;89.71;100751.28;5018295;28;20079;-69
2023/01/07 06:24:10;;;;;;;3.17;1.23;;;;;;;9.18;89.63;100747.16;5019229;28;20431;-68
2023/01/07 06:27:16;;;;;;;3.35;1.48;;;;;;;9.21;89.75;100744.44;5018459;28;20325;-68
2023/01/07 06:30:21;;;;;;;4.55;1.83;;;;;;;9.10;90.27;100744.06;5016265;28;20049;-68
2023/01/07 06:33:29;;;;;;;4.35;1.45;;;;;;;9.14;90.03;100735.19;5016817;28;20703;-69
2023/01/07 06:36:33;;;;;;;3.28;1.55;;;;;;;9.23;89.77;100732.19;5018482;28;20103;-69
2023/01/07 06:39:36;;;;;;;;;;;;;;;9.18;89.81;100728.91;5019416;28;20509;-69
2023/01/07 06:42:39;;;;;;;21.17;8.27;;;;;;;9.29;89.19;100724.94;5019470;28;19920;-69
2023/01/07 06:45:43;;;;;;;;;;;;;;;9.29;89.21;100724.09;5020122;28;20269;-69
2023/01/07 06:49:00;;;;;;;5.25;2.13;;;;;;;9.25;89.42;100722.50;5018833;28;19925;-69
2023/01/07 06:52:04;;;;;;;4.15;1.90;;;;;;;9.15;89.75;100714.22;5018607;28;20102;-68
2023/01/07 06:55:08;;;;;;;5.97;2.40;;;;;;;9.26;89.33;100717.22;5018448;28;20680;-69
2023/01/07 06:58:12;;;;;;;4.40;1.92;;;;;;;9.26;89.43;100716.38;5002558;28;20056;-69
2023/01/07 07:01:20;;;;;;;6.35;3.13;;;;;;;9.30;89.28;100715.34;5002089;28;20068;-70
2023/01/07 07:04:24;;;;;;;9.52;5.75;;;;;;;9.28;89.33;100706.72;4999280;28;20045;-68
2023/01/07 07:07:27;;;;;;;7.00;4.68;;;;;;;9.36;88.87;100706.41;4989530;28;20062;-69
2023/01/07 07:10:30;;;;;;;;;;;;;;;9.35;89.15;100704.69;4987214;28;20076;-69
2023/01/07 07:13:34;;;;;;;8.88;1.98;;;;;;;9.31;89.94;100703.97;4986998;28;19940;-69
2023/01/07 07:16:38;;;;;;;4.97;1.88;;;;;;;9.32;89.15;100695.25;4991278;28;20459;-69
2023/01/07 07:19:42;;;;;;;4.40;2.70;;;;;;;9.11;90.21;100701.41;4990427;28;20049;-69
2023/01/07 07:22:47;;;;;;;6.75;2.65;;;;;;;9.23;89.61;100698.25;4992473;28;20419;-69
2023/01/07 07:25:53;;;;;;;4.80;1.92;;;;;;;9.11;88.37;100699.63;4992436;28;20046;-69
2023/01/07 08:00:45;;;;;;;2.90;1.17;;;;;;;9.47;86.12;100678.03;6207528;22;1963035;-70
2023/01/07 08:03:48;;;;;;;2.97;1.35;;;;;;;9.61;85.66;100674.81;6249077;23;20046;-69
2023/01/07 08:19:54;;;;;;;3.72;1.13;;;;;;;9.61;82.05;100667.00;5103568;27;20896;-70
2023/01/07 08:23:01;;;;;;;4.93;1.30;;;;;;;9.81;82.14;100659.06;5106054;28;20043;-71
2023/01/07 08:26:05;;;;;;;5.55;1.00;;;;;;;9.74;82.63;100660.28;5107795;28;20117;-71
2023/01/07 08:29:12;;;;;;;2.85;1.00;;;;;;;9.88;82.60;100650.00;5109073;28;20041;-71
2023/01/07 08:32:16;;;;;;;2.60;1.17;;;;;;;9.88;81.79;100644.78;5083337;28;20051;-71
2023/01/07 08:35:20;;;;;;;5.05;1.50;;;;;;;9.85;81.67;100644.09;5099571;28;20043;-72
2023/01/07 08:38:25;;;;;;;2.50;0.98;;;;;;;9.94;81.87;100641.88;5094788;28;20121;-73
2023/01/07 08:41:31;;;;;;;3.03;1.38;;;;;;;9.93;81.83;100634.97;5103463;28;20613;-71
2023/01/07 08:44:34;;;;;;;4.97;2.03;;;;;;;9.93;80.66;100632.38;5105219;28;20043;-71
2023/01/07 08:47:38;;;;;;;;;;;;;;;9.82;78.70;100628.56;5108076;28;20086;-72
2023/01/07 08:50:41;;;;;;;2.22;0.90;;;;;;;9.80;78.32;100617.38;5108394;28;20004;-72
2023/01/07 08:53:46;;;;;;;4.45;1.10;;;;;;;9.91;78.59;100631.59;5107944;28;20051;-71
2023/01/07 08:56:50;;;;;;;2.80;1.13;;;;;;;9.76;77.90;100616.63;5108267;28;20046;-71
2023/01/07 09:10:46;;;;;;;2.70;1.63;;;;;;;9.74;77.13;100608.91;5094853;27;20182;-73
2023/01/07 09:13:50;;;;;;;1.83;0.68;;;;;;;9.83;77.09;100615.44;5078486;28;20067;-74
2023/01/07 09:16:54;;;;;;;2.67;1.30;;;;;;;9.77;76.73;100611.34;5073625;28;20074;-72
2023/01/07 09:20:01;;;;;;;6.57;0.52;;;;;;;9.91;76.26;100610.69;5074762;28;20055;-75
2023/01/07 09:23:04;;;;;;;2.42;0.68;;;;;;;9.91;76.25;100602.84;5074345;28;20112;-72
2023/01/07 09:26:08;;;;;;;1.60;0.50;;;;;;;9.96;75.36;100607.88;5073187;28;20140;-71
2023/01/07 09:29:12;;;;;;;1.85;0.45;;;;;;;9.81;75.60;100598.16;5070710;28;20063;-71
2023/01/07 09:32:15;;;;;;;1.10;0.50;;;;;;;9.99;74.88;100600.72;5064430;28;20051;-70
2023/01/07 09:35:18;;;;;;;2.80;0.85;;;;;;;9.92;74.96;100595.84;5077543;28;20101;-71
2023/01/07 09:38:21;;;;;;;;;;;;;;;9.98;74.67;100599.03;5073203;28;20147;-71
2023/01/07 09:46:01;;;;;;;2.60;0.95;;;;;;;9.93;74.30;100595.81;5072637;28;20070;-70
2023/01/07 09:49:17;;;;;;;2.08;0.85;;;;;;;9.92;74.24;100588.91;5077080;28;20050;-70
2023/01/07 09:52:25;;;;;;;5.55;0.95;;;;;;;10.07;73.72;100589.06;5074061;28;20739;-70
2023/01/07 09:55:36;;;;;;;1.70;0.40;;;;;;;10.05;73.41;100585.66;5061410;28;20046;-73
2023/01/07 09:58:43;;;;;;;2.22;0.40;;;;;;;10.05;73.43;100583.03;5074390;28;20055;-70
2023/01/07 10:01:58;;;;;;;3.40;0.52;;;;;;;10.14;73.32;100582.59;5075023;28;20098;-71
2023/01/07 10:05:43;;;;;;;2.47;0.50;;;;;;;10.14;73.04;100564.31;5074254;28;20106;-71
2023/01/07 10:09:06;;;;;;;1.30;0.43;;;;;;;10.15;72.60;100558.19;5077596;28;20177;-71
2023/01/07 10:12:18;;;;;;;1.65;0.50;;;;;;;10.34;72.26;100550.25;5062639;28;20106;-71
2023/01/07 10:27:43;;;;;;;3.65;2.40;;;;;;;10.37;69.77;100534.44;5129052;27;20362;-71
2023/01/07 10:30:52;;;;;;;1.98;0.95;;;;;;;10.50;69.44;100529.41;5123346;27;20534;-71
2023/01/07 10:33:56;;;;;;;5.30;3.08;;;;;;;10.53;68.21;100524.91;5118466;27;20099;-71
2023/01/07 10:37:30;;;;;;;2.60;0.70;;;;;;;10.64;68.34;100527.78;5132731;27;20046;-71
2023/01/07 10:40:43;;;;;;;1.80;0.70;;;;;;;10.80;67.69;100516.50;5104194;28;20046;-71
2023/01/07 10:44:34;;;;;;;2.17;1.20;;;;;;;10.61;67.05;100503.56;5104391;28;20051;-72
2023/01/07 10:48:05;;;;;;;2.13;1.00;;;;;;;10.60;66.99;100512.34;5049654;28;20169;-71
2023/01/07 10:51:34;;;;;;;3.28;1.45;;;;;;;10.64;66.93;100503.41;5113549;27;20050;-71
2023/01/07 10:54:57;;;;;;;4.63;3.10;;;;;;;10.60;66.96;100504.50;5111678;27;20054;-71
2023/01/07 10:58:10;;;;;;;2.88;1.48;;;;;;;10.78;66.42;100490.44;5135915;27;20100;-71
2023/01/07 11:01:32;;;;;;;1.88;0.65;;;;;;;10.71;66.07;100491.69;5145536;27;20411;-71
2023/01/07 11:04:35;;;;;;;2.53;0.60;;;;;;;10.85;65.56;100483.97;5145124;27;20057;-72
2023/01/07 11:07:45;;;;;;;2.47;0.90;;;;;;;10.77;66.04;100474.84;5144843;27;20054;-73
2023/01/07 11:10:48;;;;;;;2.55;1.38;;;;;;;10.86;66.11;100466.50;5144175;27;20089;-73
2023/01/07 11:13:57;;;;;;;4.32;2.05;;;;;;;10.93;65.64;100458.22;5144159;27;20449;-73
2023/01/07 11:17:39;;;;;;;4.15;2.30;;;;;;;10.97;65.04;100452.81;5127399;27;20078;-71
2023/01/07 11:20:57;;;;;;;2.30;0.90;;;;;;;11.06;65.02;100444.47;5124251;27;20078;-73
2023/01/07 11:24:04;;;;;;;2.42;1.02;;;;;;;10.96;65.22;100432.81;5123007;27;20037;-71
2023/01/07 11:27:16;;;;;;;1.50;0.47;;;;;;;11.00;65.43;100423.88;5117938;27;20046;-71
2023/01/07 11:30:27;;;;;;;2.63;0.70;;;;;;;10.97;65.05;100424.03;5109874;28;20559;-70
2023/01/07 11:33:41;;;;;;;1.63;0.50;;;;;;;11.03;65.28;100423.69;5109554;28;20127;-71
2023/01/07 11:36:45;;;;;;;1.65;0.70;;;;;;;11.16;64.46;100404.59;5109769;28;20046;-71
2023/01/07 11:39:58;;;;;;;2.45;0.88;;;;;;;11.10;64.10;100396.25;5109800;28;20105;-72
2023/01/07 11:43:19;;;;;;;1.92;0.65;;;;;;;11.19;64.08;100393.13;5109553;28;20043;-72
2023/01/07 11:46:23;;;;;;;3.25;0.70;;;;;;;11.18;63.94;100388.81;5110432;28;20046;-72
2023/01/07 11:49:30;;;;;;;2.35;0.70;;;;;;;11.18;64.33;100381.81;5109770;28;20100;-72
2023/01/07 11:52:34;;;;;;;1.63;0.63;;;;;;;11.25;64.74;100389.31;5109709;28;20100;-72
2023/01/07 11:55:38;;;;;;;1.58;0.60;;;;;;;10.99;64.75;100385.56;5109605;28;20132;-72
2023/01/07 11:58:46;;;;;;;1.05;0.43;;;;;;;11.00;65.02;100385.47;5109519;28;20081;-72
2023/01/07 12:01:52;;;;;;;2.85;0.50;;;;;;;10.82;65.45;100369.03;5109634;28;20074;-72
2023/01/07 12:05:17;;;;;;;5.95;3.08;;;;;;;10.88;65.64;100373.06;5110016;28;20179;-71
2023/01/07 12:08:21;;;;;;;2.00;0.60;;;;;;;10.89;65.57;100361.69;5109437;28;20046;-72
2023/01/07 12:11:34;;;;;;;1.83;0.70;;;;;;;10.88;65.84;100358.25;5097296;28;20097;-72
2023/01/07 12:14:38;;;;;;;7.13;0.77;;;;;;;10.79;66.11;100337.81;5109631;28;20104;-72
2023/01/07 12:17:46;;;;;;;1.92;0.50;;;;;;;10.88;66.16;100331.22;5109247;28;20135;-72
2023/01/07 12:21:08;;;;;;;4.18;2.38;;;;;;;11.06;66.20;100335.41;5096682;28;20078;-70
2023/01/07 12:24:41;;;;;;;2.88;1.38;;;;;;;11.02;65.76;100327.81;5109245;28;20116;-71
2023/01/07 12:27:53;;;;;;;7.22;1.10;;;;;;;10.93;66.74;100319.56;5109039;28;20050;-71
2023/01/07 12:31:00;;;;;;;4.53;0.90;;;;;;;11.10;65.74;100316.00;5108666;28;20050;-71
2023/01/07 12:34:19;;;;;;;4.15;1.00;;;;;;;11.21;65.15;100307.53;5109279;28;20100;-72
2023/01/07 12:37:38;;;;;;;2.00;0.80;;;;;;;11.11;65.81;100298.53;5108254;28;20046;-71
2023/01/07 12:40:55;;;;;;;1.95;0.70;;;;;;;10.88;66.80;100299.81;5109050;28;20050;-72
2023/01/07 12:50:59;;;;;;;2.05;0.95;;;;;;;10.87;67.43;100278.06;5013956;28;20092;-76
2023/01/07 12:54:17;;;;;;;2.30;0.97;;;;;;;10.88;67.29;100282.38;5012403;28;20128;-76
2023/01/07 12:57:37;;;;;;;2.38;0.98;;;;;;;10.81;67.26;100270.56;5013804;28;20371;-76
2023/01/07 13:00:53;;;;;;;2.55;1.20;;;;;;;11.03;66.96;100266.72;5013781;28;20478;-76
2023/01/07 13:04:12;;;;;;;2.85;1.20;;;;;;;10.93;67.28;100269.84;5013814;28;20103;-76
2023/01/07 13:07:53;;;;;;;4.68;1.90;;;;;;;10.91;66.95;100258.66;5013459;28;20053;-75
2023/01/07 13:12:41;;;;;;;6.65;1.40;;;;;;;10.81;68.14;100252.25;5013087;28;20080;-75
2023/01/07 13:14:49;;;;;;;2.65;1.23;;;;;;;10.73;68.42;100257.09;5013835;28;20432;-75
2023/01/07 13:17:55;;;;;;;5.82;1.58;;;;;;;10.86;67.98;100255.47;5013188;28;20037;-76
2023/01/07 13:21:06;;;;;;;2.28;1.00;;;;;;;10.86;68.24;100258.06;5013643;28;20126;-77
2023/01/07 13:24:40;;;;;;;2.65;1.30;;;;;;;10.75;68.29;100255.22;5013571;28;20129;-77
2023/01/07 13:28:27;;;;;;;1.80;0.93;;;;;;;10.78;68.65;100248.97;5013531;28;20033;-77
2023/01/07 13:31:53;;;;;;;2.65;1.30;;;;;;;10.78;68.76;100249.81;5013461;28;20084;-77
2023/01/07 13:35:33;;;;;;;3.87;1.17;;;;;;;10.72;68.52;100244.97;5015255;28;20115;-77
2023/01/07 13:39:15;;;;;;;5.18;1.98;;;;;;;10.59;68.16;100236.09;5012806;28;20041;-81
2023/01/07 13:42:24;;;;;;;2.65;1.40;;;;;;;10.71;67.93;100224.94;4989718;28;20492;-79
2023/01/07 13:45:54;;;;;;;3.30;1.55;;;;;;;10.63;68.72;100227.19;4992869;28;20501;-80
2023/01/07 13:49:04;;;;;;;5.50;2.42;;;;;;;10.68;68.30;100235.59;4997089;28;20152;-81
2023/01/07 13:52:19;;;;;;;4.10;1.63;;;;;;;10.64;68.67;100228.84;5014193;28;20040;-81
2023/01/07 13:55:49;;;;;;;3.70;1.80;;;;;;;10.67;68.63;100223.44;5024689;28;20096;-80
2023/01/07 13:59:30;;;;;;;4.25;1.77;;;;;;;10.76;68.56;100220.31;5013454;28;20096;-80
2023/01/07 14:03:01;;;;;;;2.92;1.65;;;;;;;10.87;67.90;100209.22;5032137;28;20107;-80
2023/01/07 14:06:41;;;;;;;4.40;2.33;;;;;;;10.82;67.74;100206.88;5031930;28;20134;-79
2023/01/07 14:10:03;;;;;;;3.35;1.88;;;;;;;10.85;67.13;100211.94;5033914;28;20133;-82
2023/01/07 14:13:54;;;;;;;4.10;2.33;;;;;;;11.04;66.78;100202.97;5029231;28;20099;-76
2023/01/07 14:17:32;;;;;;;4.97;3.90;;;;;;;11.16;66.01;100200.47;5011459;28;20045;-78
2023/01/07 14:21:01;;;;;;;3.88;1.75;;;;;;;11.28;64.60;100195.44;5031459;28;20437;-79
2023/01/07 14:24:21;;;;;;;;;;;;;;;11.28;64.60;100198.91;5029726;28;20124;-80
2023/01/07 14:27:46;;;;;;;2.72;1.65;;;;;;;10.87;63.94;100196.97;5029247;28;19920;-80
2023/01/07 14:30:51;;;;;;;5.30;2.00;;;;;;;10.76;63.91;100183.69;5030049;28;20049;-78
2023/01/07 14:34:06;;;;;;;3.30;2.03;;;;;;;10.87;63.67;100177.81;5026306;28;20048;-80
2023/01/07 14:37:32;;;;;;;3.25;1.63;;;;;;;10.73;63.42;100165.56;5029607;28;20095;-80
2023/01/07 14:40:44;;;;;;;3.42;2.25;;;;;;;10.71;63.69;100176.09;5026870;28;20052;-77
2023/01/07 14:44:00;;;;;;;3.28;1.85;;;;;;;10.74;63.96;100177.72;5026803;28;20056;-77
2023/01/07 14:47:03;;;;;;;4.20;1.83;;;;;;;10.69;63.74;100174.53;5027448;28;20041;-77
2023/01/07 14:50:16;;;;;;;3.83;2.47;;;;;;;10.90;64.08;100168.03;4969049;28;20190;-77
2023/01/07 14:53:37;;;;;;;3.77;2.13;;;;;;;10.92;63.51;100165.31;4988341;28;20037;-77
2023/01/07 14:56:44;;;;;;;4.35;1.90;;;;;;;10.81;64.81;100163.31;4985738;28;20317;-78
2023/01/07 15:00:28;;;;;;;3.30;1.85;;;;;;;10.98;65.44;100158.91;4988798;28;20162;-78
2023/01/07 15:03:32;;;;;;;;;;;;;;;10.82;66.60;100175.50;4991213;28;20038;-78
2023/01/07 15:06:40;;;;;;;2.83;1.25;;;;;;;10.81;67.81;100168.56;4992124;28;19928;-77
2023/01/07 15:16:42;;;;;;;4.00;1.42;;;;;;;10.87;68.21;100199.59;4999785;28;20121;-79
2023/01/07 15:19:46;;;;;;;2.63;1.35;;;;;;;10.83;68.24;100198.09;5001766;28;20405;-78
2023/01/07 15:23:16;;;;;;;2.53;1.40;;;;;;;10.84;67.98;100188.47;5001454;28;20101;-80
2023/01/07 15:26:55;;;;;;;3.60;1.80;;;;;;;10.74;69.14;100182.94;5002731;28;20107;-79
2023/01/07 15:30:22;;;;;;;4.22;1.70;;;;;;;10.64;69.62;100182.63;4997441;28;20109;-78
2023/01/07 15:33:59;;;;;;;3.97;2.20;;;;;;;10.54;69.34;100183.25;4999592;28;20061;-77
2023/01/07 15:37:04;;;;;;;3.42;1.67;;;;;;;10.67;69.99;100174.59;5002856;28;20041;-76
2023/01/07 15:40:16;;;;;;;4.43;1.85;;;;;;;10.64;69.76;100172.16;4973019;28;20564;-80
2023/01/07 15:43:29;;;;;;;2.83;1.50;;;;;;;10.65;70.31;100170.41;4985978;28;20093;-83
2023/01/07 15:51:04;;;;;;;7.35;4.40;;;;;;;10.60;69.27;100169.84;4994757;28;20100;-77
2023/01/07 15:54:41;;;;;;;3.53;1.70;;;;;;;10.46;71.39;100168.00;4992654;28;20100;-82
2023/01/07 15:57:47;;;;;;;3.47;1.55;;;;;;;10.43;71.44;100163.81;4982941;28;20064;-78
2023/01/07 16:00:53;;;;;;;4.22;2.15;;;;;;;10.27;70.08;100156.91;4989873;28;20084;-79
2023/01/07 16:03:58;;;;;;;3.28;1.80;;;;;;;10.23;69.80;100151.81;4990722;28;20524;-79
2023/01/07 16:07:01;;;;;;;3.47;1.55;;;;;;;10.37;71.70;100153.72;4990959;28;20505;-78
2023/01/07 16:10:06;;;;;;;6.00;2.40;;;;;;;10.37;72.07;100147.59;4991310;28;20084;-77
2023/01/07 16:13:17;;;;;;;4.97;2.47;;;;;;;10.28;73.20;100141.16;4991052;28;20105;-80
2023/01/07 16:16:20;;;;;;;9.57;7.10;;;;;;;10.25;71.52;100134.31;4991122;28;20097;-83
2023/01/07 16:19:24;;;;;;;6.95;4.38;;;;;;;10.33;71.87;100120.81;4991973;28;20053;-83
2023/01/07 16:22:29;;;;;;;7.60;3.00;;;;;;;10.25;73.12;100128.25;4991248;28;20535;-84
2023/01/07 16:25:44;;;;;;;5.00;2.20;;;;;;;10.09;74.14;100132.66;4991753;28;20492;-84
2023/01/07 16:28:58;;;;;;;5.35;3.88;;;;;;;9.90;73.61;100132.84;4990879;28;20045;-83
2023/01/07 16:32:05;;;;;;;5.80;3.13;;;;;;;9.76;75.21;100131.84;4991862;28;20197;-83
2023/01/07 16:35:31;;;;;;;11.35;8.43;;;;;;;9.62;74.86;100129.13;4991638;28;20093;-83
2023/01/07 16:38:37;;;;;;;4.80;3.10;;;;;;;9.68;74.20;100123.56;4991657;28;20558;-83
2023/01/07 16:41:42;;;;;;;6.15;4.10;;;;;;;9.67;74.86;100134.13;4990694;28;20559;-85
2023/01/07 16:44:48;;;;;;;6.38;3.95;;;;;;;9.44;75.75;100115.31;4991799;28;20137;-83
2023/01/07 16:48:20;;;;;;;6.18;2.80;;;;;;;9.46;75.44;100118.69;4995931;28;20095;-82
2023/01/07 16:51:44;;;;;;;5.82;2.88;;;;;;;9.44;75.37;100109.25;5031356;28;20237;-81
2023/01/07 16:54:48;;;;;;;;;;;;;;;9.26;75.43;100101.50;5019534;28;20067;-82
2023/01/07 16:57:52;;;;;;;5.15;2.35;;;;;;;9.15;75.81;100108.19;5030947;28;19924;-82
2023/01/07 17:00:58;;;;;;;5.85;2.50;;;;;;;9.04;76.12;100106.16;5031223;28;20195;-84
2023/01/07 17:04:09;;;;;;;7.70;4.72;;;;;;;9.02;76.22;100103.63;5031438;28;20065;-83
2023/01/07 17:07:36;;;;;;;10.82;6.50;;;;;;;8.98;76.00;100096.06;5031415;28;20151;-84
2023/01/07 17:10:55;;;;;;;5.07;2.85;;;;;;;8.95;76.44;100096.22;5030805;28;20100;-82
2023/01/07 17:13:59;;;;;;;10.95;6.25;;;;;;;8.88;77.20;100098.31;5031301;28;20057;-83
2023/01/07 17:17:27;;;;;;;8.30;5.25;;;;;;;8.74;77.66;100090.34;5030522;28;20769;-84
2023/01/07 17:20:31;;;;;;;5.25;3.65;;;;;;;8.57;78.36;100089.44;5018273;28;20412;-83
2023/01/07 17:23:40;;;;;;;11.15;6.63;;;;;;;8.43;79.28;100089.31;5031301;28;20515;-83
2023/01/07 17:26:44;;;;;;;10.15;6.85;;;;;;;8.34;78.58;100092.34;5030299;28;20447;-83